<?xml version="1.0" encoding="UTF-8" standalone="no" ?>
<gpx xmlns="http://www.topografix.com/GPX/1/1" xmlns:xsi="http://www.w3.org/2001/XMLSchema-instance" xsi:schemaLocation="http://www.topografix.com/GPX/1/1 http://www.topografix.com/GPX/1/1/gpx.xsd" version="1.1" creator="VisuGPX - https://www.visugpx.com">
  <metadata>
    <name>Julien</name>
    <desc><![CDATA[promenade avec Julien le 25 septembre]]></desc>
  </metadata>
  <trk>
    <name><![CDATA[Nouvelle balade (25/09/13 16:30)]]></name>
    <trkseg>
      <trkpt lat="48.72859" lon="1.73034">
        <ele>126.9</ele>
        <time>2013-09-25T14:30:16Z</time>
      </trkpt>
      <trkpt lat="48.72859" lon="1.73034">
        <ele>126.9</ele>
        <time>2013-09-25T14:30:32Z</time>
      </trkpt>
      <trkpt lat="48.72478" lon="1.7243">
        <ele>118</ele>
        <time>2013-09-25T14:38:16Z</time>
      </trkpt>
      <trkpt lat="48.72445" lon="1.72413">
        <ele>117</ele>
        <time>2013-09-25T14:38:40Z</time>
      </trkpt>
      <trkpt lat="48.72438" lon="1.72407">
        <ele>117</ele>
        <time>2013-09-25T14:38:56Z</time>
      </trkpt>
      <trkpt lat="48.72385" lon="1.72372">
        <ele>117</ele>
        <time>2013-09-25T14:40:00Z</time>
      </trkpt>
      <trkpt lat="48.72351" lon="1.72366">
        <ele>117</ele>
        <time>2013-09-25T14:40:16Z</time>
      </trkpt>
      <trkpt lat="48.72338" lon="1.72342">
        <ele>117</ele>
        <time>2013-09-25T14:40:32Z</time>
      </trkpt>
      <trkpt lat="48.72331" lon="1.72336">
        <ele>117</ele>
        <time>2013-09-25T14:40:48Z</time>
      </trkpt>
      <trkpt lat="48.72298" lon="1.7233">
        <ele>116.9</ele>
        <time>2013-09-25T14:41:12Z</time>
      </trkpt>
      <trkpt lat="48.72271" lon="1.72307">
        <ele>117</ele>
        <time>2013-09-25T14:41:44Z</time>
      </trkpt>
      <trkpt lat="48.72251" lon="1.72289">
        <ele>116.4</ele>
        <time>2013-09-25T14:41:52Z</time>
      </trkpt>
      <trkpt lat="48.72124" lon="1.72201">
        <ele>119</ele>
        <time>2013-09-25T14:44:16Z</time>
      </trkpt>
      <trkpt lat="48.7203" lon="1.72143">
        <ele>126.7</ele>
        <time>2013-09-25T14:45:52Z</time>
      </trkpt>
      <trkpt lat="48.72003" lon="1.72119">
        <ele>129.8</ele>
        <time>2013-09-25T14:47:04Z</time>
      </trkpt>
      <trkpt lat="48.71896" lon="1.72049">
        <ele>130.7</ele>
        <time>2013-09-25T14:48:08Z</time>
      </trkpt>
      <trkpt lat="48.71863" lon="1.72043">
        <ele>130.9</ele>
        <time>2013-09-25T14:48:40Z</time>
      </trkpt>
      <trkpt lat="48.7185" lon="1.72043">
        <ele>130.9</ele>
        <time>2013-09-25T14:48:56Z</time>
      </trkpt>
      <trkpt lat="48.71836" lon="1.72019">
        <ele>132.3</ele>
        <time>2013-09-25T14:49:12Z</time>
      </trkpt>
      <trkpt lat="48.71809" lon="1.72019">
        <ele>130.3</ele>
        <time>2013-09-25T14:49:36Z</time>
      </trkpt>
      <trkpt lat="48.71796" lon="1.71996">
        <ele>129.9</ele>
        <time>2013-09-25T14:49:52Z</time>
      </trkpt>
      <trkpt lat="48.71776" lon="1.71978">
        <ele>129</ele>
        <time>2013-09-25T14:50:08Z</time>
      </trkpt>
      <trkpt lat="48.71763" lon="1.71978">
        <ele>128.9</ele>
        <time>2013-09-25T14:50:24Z</time>
      </trkpt>
      <trkpt lat="48.71743" lon="1.7196">
        <ele>129.4</ele>
        <time>2013-09-25T14:50:48Z</time>
      </trkpt>
      <trkpt lat="48.71729" lon="1.7196">
        <ele>129.4</ele>
        <time>2013-09-25T14:51:20Z</time>
      </trkpt>
      <trkpt lat="48.71723" lon="1.71955">
        <ele>129.6</ele>
        <time>2013-09-25T14:51:28Z</time>
      </trkpt>
      <trkpt lat="48.71642" lon="1.71919">
        <ele>133.8</ele>
        <time>2013-09-25T14:53:20Z</time>
      </trkpt>
      <trkpt lat="48.71582" lon="1.71902">
        <ele>140.1</ele>
        <time>2013-09-25T14:54:24Z</time>
      </trkpt>
      <trkpt lat="48.71488" lon="1.71866">
        <ele>146</ele>
        <time>2013-09-25T14:56:16Z</time>
      </trkpt>
      <trkpt lat="48.71462" lon="1.71878">
        <ele>146.2</ele>
        <time>2013-09-25T14:56:40Z</time>
      </trkpt>
      <trkpt lat="48.71401" lon="1.71837">
        <ele>145.2</ele>
        <time>2013-09-25T14:58:24Z</time>
      </trkpt>
      <trkpt lat="48.71341" lon="1.71854">
        <ele>146.9</ele>
        <time>2013-09-25T15:00:40Z</time>
      </trkpt>
      <trkpt lat="48.71388" lon="1.72024">
        <ele>137</ele>
        <time>2013-09-25T15:03:36Z</time>
      </trkpt>
      <trkpt lat="48.71435" lon="1.72159">
        <ele>136</ele>
        <time>2013-09-25T15:05:20Z</time>
      </trkpt>
      <trkpt lat="48.71475" lon="1.72194">
        <ele>134.7</ele>
        <time>2013-09-25T15:05:44Z</time>
      </trkpt>
      <trkpt lat="48.71475" lon="1.72194">
        <ele>134.7</ele>
        <time>2013-09-25T15:05:52Z</time>
      </trkpt>
      <trkpt lat="48.71488" lon="1.72276">
        <ele>134.9</ele>
        <time>2013-09-25T15:08:16Z</time>
      </trkpt>
      <trkpt lat="48.71501" lon="1.72288">
        <ele>133.9</ele>
        <time>2013-09-25T15:09:52Z</time>
      </trkpt>
      <trkpt lat="48.71508" lon="1.72305">
        <ele>133.4</ele>
        <time>2013-09-25T15:10:16Z</time>
      </trkpt>
      <trkpt lat="48.71495" lon="1.72317">
        <ele>134.4</ele>
        <time>2013-09-25T15:11:28Z</time>
      </trkpt>
      <trkpt lat="48.71501" lon="1.7244">
        <ele>136.9</ele>
        <time>2013-09-25T15:14:24Z</time>
      </trkpt>
      <trkpt lat="48.71515" lon="1.72557">
        <ele>135</ele>
        <time>2013-09-25T15:16:16Z</time>
      </trkpt>
      <trkpt lat="48.71514" lon="1.72628">
        <ele>135.3</ele>
        <time>2013-09-25T15:16:56Z</time>
      </trkpt>
      <trkpt lat="48.71528" lon="1.72674">
        <ele>135.3</ele>
        <time>2013-09-25T15:19:12Z</time>
      </trkpt>
      <trkpt lat="48.71555" lon="1.7271">
        <ele>137</ele>
        <time>2013-09-25T15:20:48Z</time>
      </trkpt>
      <trkpt lat="48.71568" lon="1.7278">
        <ele>138.5</ele>
        <time>2013-09-25T15:22:08Z</time>
      </trkpt>
      <trkpt lat="48.71588" lon="1.72798">
        <ele>137.2</ele>
        <time>2013-09-25T15:22:24Z</time>
      </trkpt>
      <trkpt lat="48.71595" lon="1.72815">
        <ele>136.6</ele>
        <time>2013-09-25T15:22:32Z</time>
      </trkpt>
      <trkpt lat="48.71708" lon="1.73149">
        <ele>133</ele>
        <time>2013-09-25T15:30:24Z</time>
      </trkpt>
      <trkpt lat="48.71996" lon="1.7346">
        <ele>126.7</ele>
        <time>2013-09-25T15:40:24Z</time>
      </trkpt>
      <trkpt lat="48.72323" lon="1.73455">
        <ele>120</ele>
        <time>2013-09-25T15:50:24Z</time>
      </trkpt>
      <trkpt lat="48.72638" lon="1.73555">
        <ele>125</ele>
        <time>2013-09-25T15:57:28Z</time>
      </trkpt>
      <trkpt lat="48.72705" lon="1.73626">
        <ele>127.5</ele>
        <time>2013-09-25T16:00:00Z</time>
      </trkpt>
      <trkpt lat="48.72705" lon="1.73626">
        <ele>127.5</ele>
        <time>2013-09-25T16:00:24Z</time>
      </trkpt>
      <trkpt lat="48.72731" lon="1.73661">
        <ele>128.8</ele>
        <time>2013-09-25T16:00:48Z</time>
      </trkpt>
      <trkpt lat="48.72752" lon="1.73679">
        <ele>129.4</ele>
        <time>2013-09-25T16:01:12Z</time>
      </trkpt>
      <trkpt lat="48.72798" lon="1.73743">
        <ele>130.8</ele>
        <time>2013-09-25T16:02:16Z</time>
      </trkpt>
      <trkpt lat="48.72812" lon="1.73743">
        <ele>130.8</ele>
        <time>2013-09-25T16:02:32Z</time>
      </trkpt>
      <trkpt lat="48.72838" lon="1.73755">
        <ele>131.4</ele>
        <time>2013-09-25T16:03:04Z</time>
      </trkpt>
      <trkpt lat="48.72865" lon="1.7379">
        <ele>133.1</ele>
        <time>2013-09-25T16:05:04Z</time>
      </trkpt>
      <trkpt lat="48.72919" lon="1.7386">
        <ele>133.9</ele>
        <time>2013-09-25T16:06:40Z</time>
      </trkpt>
      <trkpt lat="48.72945" lon="1.73872">
        <ele>132.4</ele>
        <time>2013-09-25T16:06:48Z</time>
      </trkpt>
      <trkpt lat="48.72965" lon="1.7389">
        <ele>132.3</ele>
        <time>2013-09-25T16:07:12Z</time>
      </trkpt>
      <trkpt lat="48.73019" lon="1.7396">
        <ele>131.2</ele>
        <time>2013-09-25T16:10:08Z</time>
      </trkpt>
      <trkpt lat="48.73032" lon="1.73972">
        <ele>131</ele>
        <time>2013-09-25T16:10:16Z</time>
      </trkpt>
      <trkpt lat="48.73052" lon="1.7399">
        <ele>131</ele>
        <time>2013-09-25T16:11:36Z</time>
      </trkpt>
      <trkpt lat="48.73086" lon="1.74019">
        <ele>130.8</ele>
        <time>2013-09-25T16:13:12Z</time>
      </trkpt>
      <trkpt lat="48.7322" lon="1.7416">
        <ele>141.1</ele>
        <time>2013-09-25T16:16:56Z</time>
      </trkpt>
      <trkpt lat="48.7328" lon="1.74224">
        <ele>138.1</ele>
        <time>2013-09-25T16:19:44Z</time>
      </trkpt>
      <trkpt lat="48.73293" lon="1.74271">
        <ele>139.4</ele>
        <time>2013-09-25T16:20:16Z</time>
      </trkpt>
      <trkpt lat="48.73313" lon="1.7423">
        <ele>139.5</ele>
        <time>2013-09-25T16:22:48Z</time>
      </trkpt>
      <trkpt lat="48.7332" lon="1.74213">
        <ele>139.9</ele>
        <time>2013-09-25T16:23:12Z</time>
      </trkpt>
      <trkpt lat="48.73367" lon="1.73996">
        <ele>134.3</ele>
        <time>2013-09-25T16:28:24Z</time>
      </trkpt>
      <trkpt lat="48.7332" lon="1.73885">
        <ele>135.5</ele>
        <time>2013-09-25T16:30:24Z</time>
      </trkpt>
      <trkpt lat="48.73367" lon="1.73879">
        <ele>137.6</ele>
        <time>2013-09-25T16:31:36Z</time>
      </trkpt>
      <trkpt lat="48.73287" lon="1.73773">
        <ele>135.4</ele>
        <time>2013-09-25T16:33:28Z</time>
      </trkpt>
      <trkpt lat="48.73273" lon="1.7375">
        <ele>134.8</ele>
        <time>2013-09-25T16:34:16Z</time>
      </trkpt>
      <trkpt lat="48.73227" lon="1.73709">
        <ele>133.6</ele>
        <time>2013-09-25T16:37:04Z</time>
      </trkpt>
      <trkpt lat="48.73187" lon="1.73638">
        <ele>133.7</ele>
        <time>2013-09-25T16:38:40Z</time>
      </trkpt>
      <trkpt lat="48.7318" lon="1.73597">
        <ele>133.7</ele>
        <time>2013-09-25T16:40:48Z</time>
      </trkpt>
      <trkpt lat="48.73173" lon="1.73556">
        <ele>134.2</ele>
        <time>2013-09-25T16:41:12Z</time>
      </trkpt>
      <trkpt lat="48.73167" lon="1.73551">
        <ele>134</ele>
        <time>2013-09-25T16:41:28Z</time>
      </trkpt>
      <trkpt lat="48.731" lon="1.73445">
        <ele>132.6</ele>
        <time>2013-09-25T16:43:12Z</time>
      </trkpt>
      <trkpt lat="48.7304" lon="1.73334">
        <ele>131</ele>
        <time>2013-09-25T16:45:44Z</time>
      </trkpt>
      <trkpt lat="48.7302" lon="1.73293">
        <ele>130.3</ele>
        <time>2013-09-25T16:46:16Z</time>
      </trkpt>
      <trkpt lat="48.73006" lon="1.73269">
        <ele>130.2</ele>
        <time>2013-09-25T16:47:04Z</time>
      </trkpt>
      <trkpt lat="48.73006" lon="1.73269">
        <ele>130.2</ele>
        <time>2013-09-25T16:47:12Z</time>
      </trkpt>
      <trkpt lat="48.72979" lon="1.73246">
        <ele>129.9</ele>
        <time>2013-09-25T16:47:36Z</time>
      </trkpt>
      <trkpt lat="48.72973" lon="1.73228">
        <ele>129.2</ele>
        <time>2013-09-25T16:47:52Z</time>
      </trkpt>
      <trkpt lat="48.72966" lon="1.7321">
        <ele>129</ele>
        <time>2013-09-25T16:48:00Z</time>
      </trkpt>
      <trkpt lat="48.72939" lon="1.73175">
        <ele>128.9</ele>
        <time>2013-09-25T16:48:24Z</time>
      </trkpt>
      <trkpt lat="48.72933" lon="1.73169">
        <ele>128.6</ele>
        <time>2013-09-25T16:48:48Z</time>
      </trkpt>
      <trkpt lat="48.72919" lon="1.73134">
        <ele>128.1</ele>
        <time>2013-09-25T16:48:56Z</time>
      </trkpt>
      <trkpt lat="48.72899" lon="1.73093">
        <ele>127.6</ele>
        <time>2013-09-25T16:50:40Z</time>
      </trkpt>
      <trkpt lat="48.72899" lon="1.73093">
        <ele>127.6</ele>
        <time>2013-09-25T16:54:16Z</time>
      </trkpt>
    </trkseg>
  </trk>
</gpx>